createdAt,value
2018-12-09T00:01:54.969Z,2.83
2018-12-09T00:04:23.401Z,3.23
2018-12-09T00:06:51.839Z,3.77
2018-12-09T00:09:20.308Z,2.67
2018-12-09T00:11:50.296Z,2.60
2018-12-09T00:14:18.561Z,2.57
2018-12-09T00:16:47.106Z,3.20
2018-12-09T00:19:15.600Z,3.13
2018-12-09T00:21:44.174Z,3.60
2018-12-09T00:24:12.682Z,3.40
2018-12-09T00:26:41.117Z,3.17
2018-12-09T00:29:09.445Z,3.20
2018-12-09T00:31:38.893Z,3.73
2018-12-09T00:34:07.267Z,3.90
2018-12-09T00:36:35.549Z,3.70
2018-12-09T00:39:05.963Z,2.17
2018-12-09T00:41:34.176Z,1.80
2018-12-09T00:44:02.655Z,1.63
2018-12-09T00:46:31.081Z,1.67
2018-12-09T00:49:01.505Z,1.90
2018-12-09T00:51:30.113Z,2.10
2018-12-09T00:57:31.209Z,2.83
2018-12-09T00:59:59.544Z,3.40
2018-12-09T01:02:27.898Z,2.70
2018-12-09T01:04:56.412Z,2.33
2018-12-09T01:07:24.701Z,2.87
2018-12-09T01:09:53.204Z,2.40
2018-12-09T01:12:21.532Z,2.17
2018-12-09T01:14:50.133Z,1.90
2018-12-09T01:17:18.473Z,1.73
2018-12-09T01:19:46.909Z,2.63
2018-12-09T01:22:14.185Z,2.80
2018-12-09T01:24:42.161Z,3.80
2018-12-09T01:27:09.392Z,4.37
2018-12-09T01:29:36.716Z,3.80
2018-12-09T01:32:04.039Z,5.10
2018-12-09T01:34:31.269Z,3.77
2018-12-09T01:36:58.615Z,4.10
2018-12-09T01:39:28.520Z,3.30
2018-12-09T01:41:56.877Z,4.23
2018-12-09T01:44:24.225Z,3.70
2018-12-09T01:46:51.832Z,3.40
2018-12-09T01:49:19.072Z,3.77
2018-12-09T01:51:46.285Z,2.70
2018-12-09T01:54:14.814Z,3.40
2018-12-09T01:56:43.708Z,3.07
2018-12-09T01:59:12.165Z,3.23
2018-12-09T02:01:41.092Z,2.93
2018-12-09T02:04:09.441Z,3.70
2018-12-09T02:06:38.211Z,3.30
2018-12-09T02:09:08.663Z,3.93
2018-12-09T02:11:37.117Z,4.27
2018-12-09T02:14:05.641Z,3.73
2018-12-09T02:16:34.533Z,3.80
2018-12-09T02:19:16.202Z,3.13
2018-12-09T02:21:45.171Z,3.80
2018-12-09T02:24:13.625Z,3.67
2018-12-09T02:26:42.193Z,6.27
2018-12-09T02:29:10.806Z,5.10
2018-12-09T02:31:39.318Z,4.70
2018-12-09T02:34:07.886Z,5.00
2018-12-09T02:36:37.061Z,4.50
2018-12-09T02:39:07.409Z,3.97
2018-12-09T02:41:37.348Z,5.10
2018-12-09T02:44:05.896Z,5.67
2018-12-09T02:46:35.132Z,3.87
2018-12-09T02:49:03.742Z,3.90
2018-12-09T02:51:34.988Z,4.00
2018-12-09T02:54:03.710Z,3.70
2018-12-09T02:56:32.365Z,3.60
2018-12-09T02:59:00.936Z,3.83
2018-12-09T03:01:29.308Z,3.73
2018-12-09T03:04:02.786Z,3.27
2018-12-09T03:06:31.631Z,4.43
2018-12-09T03:09:00.066Z,4.53
2018-12-09T03:11:28.545Z,3.40
2018-12-09T03:13:57.002Z,3.73
2018-12-09T03:16:25.580Z,3.53
2018-12-09T03:18:54.947Z,3.60
2018-12-09T03:21:23.422Z,3.23
2018-12-09T03:23:51.805Z,4.07
2018-12-09T03:26:20.794Z,3.87
2018-12-09T03:28:49.124Z,2.83
2018-12-09T03:31:17.466Z,2.73
2018-12-09T03:33:45.778Z,3.57
2018-12-09T03:36:14.113Z,3.70
2018-12-09T03:38:46.755Z,3.00
2018-12-09T03:41:15.674Z,3.20
2018-12-09T03:43:43.979Z,3.43
2018-12-09T03:46:12.461Z,2.70
2018-12-09T03:48:40.905Z,2.83
2018-12-09T03:51:09.344Z,3.37
2018-12-09T03:53:37.786Z,4.53
2018-12-09T03:56:06.151Z,3.13
2018-12-09T03:58:34.504Z,4.10
2018-12-09T04:01:02.929Z,3.63
2018-12-09T04:03:31.561Z,3.70
2018-12-09T04:05:59.918Z,3.80
2018-12-09T04:08:28.355Z,3.60
2018-12-09T04:10:56.927Z,4.10
2018-12-09T04:13:25.405Z,4.50
2018-12-09T04:15:54.157Z,3.77
2018-12-09T04:18:22.834Z,4.03
2018-12-09T04:20:51.199Z,3.40
2018-12-09T04:23:20.104Z,4.50
2018-12-09T04:25:48.677Z,4.50
2018-12-09T04:28:17.158Z,3.20
2018-12-09T04:30:45.816Z,3.40
2018-12-09T04:33:14.398Z,4.53
2018-12-09T04:35:42.844Z,3.53
2018-12-09T04:38:11.188Z,4.80
2018-12-09T04:40:39.520Z,4.10
2018-12-09T04:43:07.961Z,4.50
2018-12-09T04:45:36.456Z,5.47
2018-12-09T04:48:05.022Z,4.77
2018-12-09T04:50:33.764Z,4.93
2018-12-09T04:53:02.154Z,4.30
2018-12-09T04:55:30.519Z,4.00
2018-12-09T04:57:58.958Z,3.20
2018-12-09T05:00:39.081Z,3.50
2018-12-09T05:03:07.424Z,4.13
2018-12-09T05:05:41.616Z,4.03
2018-12-09T05:08:08.861Z,3.37
2018-12-09T05:10:36.153Z,3.37
2018-12-09T05:13:03.509Z,2.97
2018-12-09T05:15:30.768Z,3.60
2018-12-09T05:17:59.135Z,3.67
2018-12-09T05:20:27.689Z,4.17
2018-12-09T05:23:01.848Z,4.50
2018-12-09T05:25:29.337Z,4.30
2018-12-09T05:27:56.582Z,4.30
2018-12-09T05:30:23.816Z,4.60
2018-12-09T05:32:51.140Z,4.27
2018-12-09T05:35:19.846Z,4.80
2018-12-09T05:37:48.168Z,4.83
2018-12-09T05:40:16.733Z,5.07
2018-12-09T05:42:45.265Z,5.60
2018-12-09T05:45:13.706Z,3.67
2018-12-09T05:47:42.456Z,3.63
2018-12-09T05:50:12.152Z,2.67
2018-12-09T05:52:40.496Z,3.13
2018-12-09T05:55:08.919Z,3.43
2018-12-09T05:57:37.476Z,3.63
2018-12-09T06:00:08.468Z,3.00
2018-12-09T06:02:48.304Z,3.40
2018-12-09T06:05:16.597Z,3.03
2018-12-09T06:07:45.053Z,3.13
2018-12-09T06:10:13.550Z,3.07
2018-12-09T06:12:42.041Z,2.73
2018-12-09T06:15:10.629Z,2.57
2018-12-09T06:17:38.992Z,3.00
2018-12-09T06:20:07.957Z,2.90
2018-12-09T06:22:36.308Z,3.40
2018-12-09T06:25:04.749Z,3.77
2018-12-09T06:27:33.376Z,4.20
2018-12-09T06:30:01.729Z,5.77
2018-12-09T06:32:30.561Z,3.90
2018-12-09T06:34:58.992Z,6.30
2018-12-09T06:37:27.430Z,5.37
2018-12-09T06:39:56.668Z,4.73
2018-12-09T06:42:25.096Z,5.63
2018-12-09T06:44:53.410Z,4.90
2018-12-09T06:47:22.279Z,6.10
2018-12-09T06:49:50.565Z,4.70
2018-12-09T06:52:18.864Z,3.80
2018-12-09T06:54:48.582Z,4.10
2018-12-09T06:57:17.155Z,3.33
2018-12-09T06:59:46.351Z,4.57
2018-12-09T07:02:14.695Z,4.27
2018-12-09T07:04:43.115Z,2.60
2018-12-09T07:07:11.659Z,3.40
2018-12-09T07:09:40.281Z,3.30
2018-12-09T07:12:08.880Z,3.10
2018-12-09T07:14:37.367Z,2.63
2018-12-09T07:17:08.314Z,3.60
2018-12-09T07:19:35.620Z,3.50
2018-12-09T07:22:03.987Z,5.23
2018-12-09T07:24:33.987Z,4.10
2018-12-09T07:27:02.907Z,5.20
2018-12-09T07:29:31.464Z,5.43
2018-12-09T07:32:05.741Z,4.20
2018-12-09T07:34:33.073Z,5.47
2018-12-09T07:37:02.703Z,4.87
2018-12-09T07:39:30.164Z,4.73
2018-12-09T07:41:57.675Z,5.00
2018-12-09T07:44:25.322Z,5.60
2018-12-09T07:46:52.901Z,7.00
2018-12-09T07:49:20.109Z,6.90
2018-12-09T07:51:48.667Z,8.47
2018-12-09T07:54:17.443Z,6.13
2018-12-09T07:56:45.756Z,6.57
2018-12-09T07:59:13.991Z,6.80
2018-12-09T08:01:42.537Z,7.70
2018-12-09T08:04:10.853Z,6.80
2018-12-09T08:06:42.221Z,7.57
2018-12-09T08:09:10.601Z,7.50
2018-12-09T08:11:39.072Z,5.70
2018-12-09T08:14:08.082Z,6.70
2018-12-09T08:16:37.259Z,5.80
2018-12-09T08:19:05.524Z,7.70
2018-12-09T08:21:34.512Z,5.87
2018-12-09T08:24:03.112Z,5.90
2018-12-09T08:26:31.488Z,7.10
2018-12-09T08:28:59.923Z,6.07
2018-12-09T08:31:28.256Z,6.30
2018-12-09T08:33:57.921Z,6.23
2018-12-09T08:36:26.256Z,6.07
2018-12-09T08:38:54.704Z,5.63
2018-12-09T08:41:23.073Z,6.00
2018-12-09T08:43:51.404Z,7.03
2018-12-09T08:46:19.737Z,5.80
2018-12-09T08:48:48.132Z,6.50
2018-12-09T08:51:16.464Z,6.40
2018-12-09T08:53:44.902Z,6.40
2018-12-09T08:56:13.199Z,5.73
2018-12-09T08:58:41.620Z,5.97
2018-12-09T09:01:10.130Z,6.17
2018-12-09T09:03:38.660Z,5.73
2018-12-09T09:06:07.207Z,5.20
2018-12-09T09:08:35.627Z,5.87
2018-12-09T09:11:04.397Z,5.50
2018-12-09T09:13:32.668Z,6.20
2018-12-09T09:16:01.048Z,6.10
2018-12-09T09:18:29.401Z,6.10
2018-12-09T09:20:57.864Z,2.93
2018-12-09T09:23:26.225Z,1.67
2018-12-09T09:25:54.542Z,1.90
2018-12-09T09:28:22.853Z,2.50
2018-12-09T09:30:51.341Z,2.35
2018-12-09T09:33:19.656Z,1.22
2018-12-09T09:35:47.991Z,1.40
2018-12-09T09:38:16.324Z,1.55
2018-12-09T09:40:44.776Z,1.80
2018-12-09T09:43:13.260Z,1.27
2018-12-09T09:45:41.614Z,1.00
2018-12-09T09:48:09.940Z,1.10
2018-12-09T09:50:39.336Z,1.00
2018-12-09T09:53:07.800Z,0.93
2018-12-09T09:55:36.199Z,0.80
2018-12-09T09:58:04.556Z,0.95
2018-12-09T10:00:32.888Z,1.07
2018-12-09T10:03:01.129Z,1.20
2018-12-09T10:05:29.685Z,0.95
2018-12-09T10:07:58.693Z,0.80
2018-12-09T10:10:27.131Z,1.40
2018-12-09T10:12:56.310Z,0.80
2018-12-09T10:15:26.288Z,1.20
2018-12-09T10:17:54.623Z,1.95
2018-12-09T10:20:22.859Z,0.87
2018-12-09T10:22:51.312Z,0.73
2018-12-09T10:25:19.633Z,1.00
2018-12-09T10:27:50.781Z,0.83
2018-12-09T10:30:19.212Z,1.27
2018-12-09T10:32:47.562Z,1.10
2018-12-09T10:35:15.945Z,1.20
2018-12-09T10:37:44.269Z,1.07
2018-12-09T10:40:12.529Z,1.23
2018-12-09T10:42:40.916Z,2.10
2018-12-09T10:45:09.507Z,0.93
2018-12-09T10:47:37.823Z,0.77
2018-12-09T10:50:07.157Z,1.07
2018-12-09T10:52:35.655Z,1.10
2018-12-09T10:55:04.120Z,1.30
2018-12-09T10:57:32.479Z,1.13
2018-12-09T11:00:00.792Z,1.10
2018-12-09T11:02:29.232Z,1.00
2018-12-09T11:04:57.988Z,1.57
2018-12-09T11:07:26.312Z,1.80
2018-12-09T11:09:54.659Z,1.70
2018-12-09T11:12:23.007Z,2.00
2018-12-09T11:14:51.429Z,1.52
2018-12-09T11:17:19.995Z,1.55
2018-12-09T11:19:48.691Z,1.50
2018-12-09T11:22:16.927Z,1.72
2018-12-09T11:24:46.996Z,1.93
2018-12-09T11:27:15.436Z,3.07
2018-12-09T11:29:43.743Z,4.03
2018-12-09T11:32:12.069Z,4.23
2018-12-09T11:34:40.491Z,3.90
2018-12-09T11:37:09.052Z,4.37
2018-12-09T11:39:37.459Z,3.83
2018-12-09T11:42:05.911Z,4.17
2018-12-09T11:44:35.339Z,4.20
2018-12-09T11:47:03.797Z,2.33
2018-12-09T11:49:32.323Z,1.97
2018-12-09T11:52:00.588Z,1.67
2018-12-09T11:54:29.048Z,2.60
2018-12-09T11:56:57.727Z,2.17
2018-12-09T11:59:26.711Z,1.57
2018-12-09T12:01:55.344Z,2.70
2018-12-09T12:04:23.527Z,3.00
2018-12-09T12:06:51.715Z,2.13
2018-12-09T12:09:20.019Z,1.70
2018-12-09T12:11:48.261Z,2.33
2018-12-09T12:14:16.622Z,1.40
2018-12-09T12:16:48.350Z,1.50
2018-12-09T12:21:51.024Z,1.67
2018-12-09T12:24:18.287Z,1.93
2018-12-09T12:26:45.486Z,1.70
2018-12-09T12:29:12.672Z,1.83
2018-12-09T12:31:40.284Z,1.87
2018-12-09T12:34:08.580Z,2.00
2018-12-09T12:36:36.846Z,2.60
2018-12-09T12:39:06.285Z,2.30
2018-12-09T12:41:34.756Z,2.20
2018-12-09T12:44:03.506Z,2.90
2018-12-09T12:46:32.142Z,3.00
2018-12-09T12:49:01.441Z,3.77
2018-12-09T12:51:29.852Z,4.20
2018-12-09T12:53:58.412Z,4.17
2018-12-09T12:56:26.765Z,5.30
2018-12-09T12:58:55.076Z,5.03
2018-12-09T13:01:23.807Z,4.70
2018-12-09T13:03:52.164Z,5.00
2018-12-09T13:06:21.092Z,5.47
2018-12-09T13:08:49.455Z,5.70
2018-12-09T13:11:17.899Z,4.40
2018-12-09T13:13:46.372Z,5.00
2018-12-09T13:16:14.633Z,5.10
2018-12-09T13:18:42.972Z,3.90
2018-12-09T13:21:11.582Z,5.03
2018-12-09T13:23:39.822Z,4.67
2018-12-09T13:26:09.336Z,4.90
2018-12-09T13:28:37.921Z,4.93
2018-12-09T13:31:06.324Z,4.17
2018-12-09T13:33:34.652Z,5.13
2018-12-09T13:36:03.495Z,3.43
2018-12-09T13:38:36.452Z,5.00
2018-12-09T13:41:04.797Z,3.87
2018-12-09T13:43:33.313Z,3.70
2018-12-09T13:46:01.701Z,4.10
2018-12-09T13:48:30.180Z,4.87
2018-12-09T13:50:58.488Z,3.57
2018-12-09T13:53:26.930Z,3.80
2018-12-09T13:55:55.461Z,5.47
2018-12-09T13:58:24.041Z,4.00
2018-12-09T14:00:52.514Z,4.50
2018-12-09T14:03:21.055Z,4.10
2018-12-09T14:05:49.368Z,3.83
2018-12-09T14:08:18.476Z,4.67
2018-12-09T14:10:46.981Z,3.80
2018-12-09T14:13:15.501Z,3.47
2018-12-09T14:15:49.530Z,4.17
2018-12-09T14:18:16.759Z,4.10
2018-12-09T14:20:46.714Z,3.90
2018-12-09T14:23:13.924Z,4.37
2018-12-09T14:25:41.164Z,4.17
2018-12-09T14:28:09.532Z,4.70
2018-12-09T14:30:37.760Z,4.43
2018-12-09T14:33:06.288Z,4.70
2018-12-09T14:35:34.666Z,4.83
2018-12-09T14:38:03.179Z,4.50
2018-12-09T14:40:34.881Z,4.60
2018-12-09T14:43:03.392Z,5.80
2018-12-09T14:45:31.714Z,6.70
2018-12-09T14:48:00.092Z,4.67
2018-12-09T14:50:28.452Z,4.07
2018-12-09T14:52:57.491Z,4.97
2018-12-09T14:55:33.060Z,4.47
2018-12-09T14:58:00.268Z,4.00
2018-12-09T15:00:27.497Z,3.70
2018-12-09T15:02:54.819Z,4.53
2018-12-09T15:05:22.032Z,5.60
2018-12-09T15:07:49.248Z,4.10
2018-12-09T15:10:16.800Z,4.17
2018-12-09T15:12:45.528Z,3.60
2018-12-09T15:15:13.889Z,3.67
2018-12-09T15:17:42.208Z,4.10
2018-12-09T15:20:10.634Z,3.57
2018-12-09T15:22:39.075Z,3.90
2018-12-09T15:25:08.785Z,3.57
2018-12-09T15:27:37.330Z,3.40
2018-12-09T15:30:07.079Z,3.43
2018-12-09T15:32:37.664Z,2.30
2018-12-09T15:35:07.288Z,2.67
2018-12-09T15:37:35.741Z,2.03
2018-12-09T15:40:04.261Z,1.80
2018-12-09T15:42:32.520Z,3.83
2018-12-09T15:45:00.823Z,2.20
2018-12-09T15:47:29.431Z,2.87
2018-12-09T15:49:57.888Z,2.60
2018-12-09T15:52:26.277Z,2.40
2018-12-09T15:54:54.641Z,2.67
2018-12-09T15:57:23.128Z,2.73
2018-12-09T15:59:53.487Z,2.73
2018-12-09T16:02:21.911Z,6.13
2018-12-09T16:04:50.270Z,2.60
2018-12-09T16:07:18.773Z,3.00
2018-12-09T16:09:47.311Z,3.43
2018-12-09T16:12:17.402Z,2.50
2018-12-09T16:14:45.837Z,3.00
2018-12-09T16:17:14.475Z,4.23
2018-12-09T16:19:42.797Z,3.40
2018-12-09T16:22:11.011Z,3.53
2018-12-09T16:24:39.653Z,3.83
2018-12-09T16:27:07.965Z,4.40
2018-12-09T16:29:39.557Z,3.77
2018-12-09T16:32:07.872Z,3.10
2018-12-09T16:34:37.367Z,2.60
2018-12-09T16:37:06.014Z,3.93
2018-12-09T16:39:34.449Z,3.07
2018-12-09T16:42:03.107Z,2.13
2018-12-09T16:47:32.481Z,2.17
2018-12-09T16:51:03.000Z,2.90
2018-12-09T16:53:31.319Z,2.63
2018-12-09T16:55:59.921Z,2.57
2018-12-09T16:58:32.356Z,2.40
2018-12-09T17:01:00.758Z,2.33
2018-12-09T17:03:29.058Z,2.60
2018-12-09T17:05:57.960Z,1.97
2018-12-09T17:08:26.430Z,1.87
2018-12-09T17:10:54.797Z,2.20
2018-12-09T17:13:23.173Z,2.57
2018-12-09T17:15:51.984Z,2.53
2018-12-09T17:18:20.244Z,1.90
2018-12-09T17:20:48.572Z,2.67
2018-12-09T17:23:20.799Z,3.50
2018-12-09T17:25:49.156Z,3.30
2018-12-09T17:28:17.432Z,3.20
2018-12-09T17:30:45.872Z,3.40
2018-12-09T17:33:14.187Z,4.23
2018-12-09T17:35:43.629Z,3.30
2018-12-09T17:38:13.750Z,4.17
2018-12-09T17:40:41.996Z,4.77
2018-12-09T17:43:10.326Z,5.07
2018-12-09T17:45:38.583Z,4.03
2018-12-09T17:48:11.396Z,4.50
2018-12-09T17:50:44.120Z,3.63
2018-12-09T17:53:13.136Z,4.83
2018-12-09T17:55:41.492Z,4.30
2018-12-09T17:58:09.815Z,5.27
2018-12-09T18:00:38.501Z,4.30
2018-12-09T18:03:07.049Z,4.80
2018-12-09T18:05:42.295Z,3.83
2018-12-09T18:08:10.623Z,3.27
2018-12-09T18:10:39.265Z,3.60
2018-12-09T18:13:07.632Z,5.00
2018-12-09T18:15:36.061Z,4.40
2018-12-09T18:18:04.469Z,4.60
2018-12-09T18:20:33.512Z,4.70
2018-12-09T18:23:01.952Z,3.60
2018-12-09T18:25:30.319Z,4.37
2018-12-09T18:28:00.753Z,4.07
2018-12-09T18:30:29.905Z,5.23
2018-12-09T18:32:58.684Z,4.80
2018-12-09T18:35:27.868Z,3.70
2018-12-09T18:37:56.862Z,4.10
2018-12-09T18:40:25.296Z,3.90
2018-12-09T18:42:53.734Z,3.60
2018-12-09T18:45:23.728Z,3.53
2018-12-09T18:47:52.209Z,3.30
2018-12-09T18:50:20.665Z,3.45
2018-12-09T18:52:49.102Z,3.73
2018-12-09T18:55:18.755Z,4.73
2018-12-09T18:57:47.380Z,4.97
2018-12-09T19:00:15.849Z,3.53
2018-12-09T19:02:44.359Z,3.90
2018-12-09T19:05:12.880Z,3.30
2018-12-09T19:07:41.814Z,4.17
2018-12-09T19:10:10.157Z,4.30
2018-12-09T19:12:38.796Z,3.50
2018-12-09T19:15:07.514Z,5.22
2018-12-09T19:17:35.971Z,4.87
2018-12-09T19:20:04.394Z,4.30
2018-12-09T19:22:32.712Z,3.07
2018-12-09T19:25:00.976Z,5.40
2018-12-09T19:27:29.164Z,3.80
2018-12-09T19:29:58.014Z,4.07
2018-12-09T19:32:26.355Z,4.20
2018-12-09T19:34:54.741Z,4.50
2018-12-09T19:37:22.971Z,3.73
2018-12-09T19:39:51.263Z,3.77
2018-12-09T19:42:19.583Z,3.70
2018-12-09T19:44:49.782Z,4.00
2018-12-09T19:47:18.076Z,5.00
2018-12-09T19:49:46.379Z,3.17
2018-12-09T19:52:14.654Z,4.17
2018-12-09T19:54:42.970Z,3.23
2018-12-09T19:57:11.428Z,4.20
2018-12-09T19:59:45.691Z,5.00
2018-12-09T20:02:13.111Z,3.10
2018-12-09T20:04:40.283Z,3.00
2018-12-09T20:07:07.453Z,3.27
2018-12-09T20:09:34.639Z,3.03
2018-12-09T20:12:03.066Z,3.20
2018-12-09T20:14:31.359Z,3.20
2018-12-09T20:16:59.900Z,3.35
2018-12-09T20:19:28.243Z,3.37
2018-12-09T20:21:56.655Z,3.60
2018-12-09T20:24:24.844Z,3.60
2018-12-09T20:26:53.192Z,3.27
2018-12-09T20:29:21.463Z,3.87
2018-12-09T20:31:49.764Z,3.75
2018-12-09T20:34:18.656Z,4.97
2018-12-09T20:36:46.832Z,4.10
2018-12-09T20:39:15.146Z,5.53
2018-12-09T20:41:43.479Z,5.58
2018-12-09T20:44:11.800Z,4.78
2018-12-09T20:46:40.466Z,4.50
2018-12-09T20:49:08.825Z,6.47
2018-12-09T20:51:37.139Z,4.20
2018-12-09T20:54:05.358Z,4.70
2018-12-09T20:56:35.263Z,3.87
2018-12-09T20:59:03.623Z,4.22
2018-12-09T21:01:31.964Z,3.50
2018-12-09T21:04:00.271Z,3.45
2018-12-09T21:06:28.664Z,3.83
2018-12-09T21:08:57.395Z,4.40
2018-12-09T21:11:25.627Z,4.50
2018-12-09T21:13:54.073Z,4.47
2018-12-09T21:16:22.677Z,5.10
2018-12-09T21:18:50.949Z,3.98
2018-12-09T21:21:19.392Z,4.70
2018-12-09T21:23:48.062Z,6.53
2018-12-09T21:26:17.392Z,5.25
2018-12-09T21:28:45.861Z,5.45
2018-12-09T21:31:14.179Z,4.95
2018-12-09T21:33:42.917Z,5.40
2018-12-09T21:36:11.269Z,4.12
2018-12-09T21:38:39.692Z,4.15
2018-12-09T21:41:08.027Z,4.78
2018-12-09T21:46:08.593Z,5.20
2018-12-09T21:48:35.824Z,5.05
2018-12-09T21:51:03.201Z,4.22
2018-12-09T21:53:32.252Z,3.80
2018-12-09T21:56:00.614Z,3.85
2018-12-09T21:58:28.969Z,3.92
2018-12-09T22:00:57.452Z,4.15
2018-12-09T22:03:25.798Z,3.65
2018-12-09T22:05:54.246Z,4.85
2018-12-09T22:08:21.463Z,3.10
2018-12-09T22:10:49.793Z,4.15
2018-12-09T22:13:18.357Z,3.50
2018-12-09T22:15:47.637Z,4.37
2018-12-09T22:18:16.089Z,3.52
2018-12-09T22:20:44.436Z,3.10
2018-12-09T22:23:13.370Z,3.47
2018-12-09T22:25:41.920Z,3.40
2018-12-09T22:28:10.251Z,2.85
2018-12-09T22:30:38.612Z,3.67
2018-12-09T22:33:06.925Z,3.55
2018-12-09T22:35:35.377Z,4.25
2018-12-09T22:38:03.766Z,2.72
2018-12-09T22:40:32.038Z,2.87
2018-12-09T22:43:00.413Z,2.77
2018-12-09T22:45:28.844Z,3.85
2018-12-09T22:47:57.392Z,2.60
2018-12-09T22:50:25.744Z,3.40
2018-12-09T22:52:54.179Z,3.17
2018-12-09T22:55:22.509Z,3.40
2018-12-09T22:57:51.060Z,3.25
2018-12-09T23:00:27.398Z,3.30
2018-12-09T23:03:00.525Z,3.77
2018-12-09T23:05:29.017Z,3.10
2018-12-09T23:07:57.465Z,2.58
2018-12-09T23:10:25.867Z,2.87
2018-12-09T23:12:54.336Z,2.92
2018-12-09T23:15:22.804Z,2.85
2018-12-09T23:17:51.188Z,2.33
2018-12-09T23:20:20.150Z,2.50
2018-12-09T23:22:48.492Z,2.47
2018-12-09T23:25:17.508Z,2.72
2018-12-09T23:27:45.850Z,2.60
2018-12-09T23:30:14.198Z,1.90
2018-12-09T23:32:42.569Z,3.40
2018-12-09T23:35:11.176Z,2.58
2018-12-09T23:37:39.687Z,2.80
2018-12-09T23:40:08.372Z,3.27
2018-12-09T23:42:36.925Z,3.15
2018-12-09T23:45:05.460Z,3.77
2018-12-09T23:47:34.076Z,2.90
2018-12-09T23:50:02.648Z,3.90
2018-12-09T23:52:30.936Z,2.62
2018-12-09T23:54:59.286Z,2.27
2018-12-09T23:57:27.919Z,2.70
2018-12-09T23:59:59.024Z,3.67
